createdAt,value
2022-08-03T00:02:34.295Z,101188.84
2022-08-03T00:05:21.334Z,101194.53
2022-08-03T00:08:08.706Z,101198.59
2022-08-03T00:10:55.771Z,101197.41
2022-08-03T00:13:43.047Z,101192.97
2022-08-03T00:16:30.046Z,101199.53
2022-08-03T00:19:17.038Z,101187.41
2022-08-03T00:22:04.106Z,101188.25
2022-08-03T00:24:51.093Z,101190.31
2022-08-03T00:27:38.135Z,101185.06
2022-08-03T00:30:29.385Z,101184.69
2022-08-03T00:33:18.255Z,101188.75
2022-08-03T00:36:07.222Z,101187.16
2022-08-03T00:38:54.449Z,101180.72
2022-08-03T00:41:41.447Z,101182.78
2022-08-03T00:44:28.393Z,101186.09
2022-08-03T00:47:15.469Z,101177.97
2022-08-03T00:50:03.770Z,101187.69
2022-08-03T00:52:54.030Z,101183.72
2022-08-03T00:55:42.345Z,101186.16
2022-08-03T00:58:29.450Z,101181.31
2022-08-03T01:01:16.546Z,101172.84
2022-08-03T01:04:04.971Z,101177.34
2022-08-03T01:07:10.995Z,101172.47
2022-08-03T01:10:12.525Z,101166.81
2022-08-03T01:14:03.417Z,101168.84
2022-08-03T01:16:36.734Z,101168.09
2022-08-03T01:19:43.021Z,101162.81
2022-08-03T01:23:11.062Z,101168.09
2022-08-03T01:26:10.161Z,101174.16
2022-08-03T01:29:20.254Z,101167.78
2022-08-03T01:33:02.785Z,101162.53
2022-08-03T01:35:38.284Z,101163.38
2022-08-03T01:38:29.494Z,101162.94
2022-08-03T01:41:30.825Z,101163.72
2022-08-03T01:44:29.737Z,101164.94
2022-08-03T01:47:21.297Z,101163.78
2022-08-03T01:50:10.967Z,101171.88
2022-08-03T01:52:59.197Z,101163.81
2022-08-03T01:55:48.723Z,101167.09
2022-08-03T01:58:37.275Z,101165.44
2022-08-03T02:01:25.504Z,101164.25
2022-08-03T02:04:33.323Z,101163.06
2022-08-03T02:07:20.888Z,101156.63
2022-08-03T02:10:11.724Z,101162.31
2022-08-03T02:13:01.398Z,101156.31
2022-08-03T02:15:49.241Z,101162.38
2022-08-03T02:18:39.715Z,101155.13
2022-08-03T02:21:57.356Z,101157.53
2022-08-03T02:24:37.144Z,101160.81
2022-08-03T02:27:27.182Z,101161.25
2022-08-03T02:30:14.568Z,101157.63
2022-08-03T02:33:02.450Z,101158.84
2022-08-03T02:35:50.811Z,101142.28
2022-08-03T02:38:42.705Z,101147.94
2022-08-03T02:41:42.014Z,101146.75
2022-08-03T02:44:34.857Z,101152.88
2022-08-03T02:47:22.717Z,101142.00
2022-08-03T02:50:12.443Z,101144.81
2022-08-03T02:53:01.545Z,101151.69
2022-08-03T02:55:50.301Z,101140.84
2022-08-03T02:58:40.265Z,101148.09
2022-08-03T03:01:29.178Z,101145.25
2022-08-03T03:04:17.279Z,101150.91
2022-08-03T03:07:08.153Z,101144.06
2022-08-03T03:09:56.354Z,101146.88
2022-08-03T03:12:45.090Z,101144.44
2022-08-03T03:15:35.878Z,101142.00
2022-08-03T03:18:25.216Z,101145.66
2022-08-03T03:21:14.482Z,101133.97
2022-08-03T03:24:02.570Z,101150.09
2022-08-03T03:26:50.190Z,101143.22
2022-08-03T03:29:39.391Z,101153.69
2022-08-03T03:32:28.121Z,101152.09
2022-08-03T03:35:16.714Z,101157.72
2022-08-03T03:38:03.778Z,101158.16
2022-08-03T03:40:50.749Z,101157.72
2022-08-03T03:43:37.915Z,101154.50
2022-08-03T03:46:25.322Z,101158.97
2022-08-03T03:49:12.553Z,101152.88
2022-08-03T03:52:00.031Z,101148.03
2022-08-03T03:54:47.071Z,101151.69
2022-08-03T03:57:35.031Z,101154.53
2022-08-03T04:00:23.333Z,101163.00
2022-08-03T04:03:11.894Z,101154.53
2022-08-03T04:06:31.810Z,101162.19
2022-08-03T04:09:37.693Z,101157.34
2022-08-03T04:12:28.902Z,101165.84
2022-08-03T04:15:17.334Z,101169.47
2022-08-03T04:18:06.744Z,101173.09
2022-08-03T04:20:55.283Z,101175.47
2022-08-03T04:23:46.147Z,101164.16
2022-08-03T04:26:37.477Z,101169.78
2022-08-03T04:29:26.883Z,101171.75
2022-08-03T04:32:14.797Z,101185.84
2022-08-03T04:35:02.074Z,101190.25
2022-08-03T04:37:52.731Z,101185.75
2022-08-03T04:40:42.813Z,101188.97
2022-08-03T04:43:32.881Z,101184.47
2022-08-03T04:46:24.236Z,101189.25
2022-08-03T04:49:12.385Z,101192.84
2022-08-03T04:51:59.612Z,101187.88
2022-08-03T04:54:50.716Z,101180.56
2022-08-03T04:57:38.042Z,101177.25
2022-08-03T05:00:25.994Z,101186.88
2022-08-03T05:03:23.485Z,101181.94
2022-08-03T05:06:11.832Z,101178.66
2022-08-03T05:08:58.865Z,101175.69
2022-08-03T05:11:46.541Z,101188.16
2022-08-03T05:14:36.226Z,101174.31
2022-08-03T05:17:23.193Z,101175.44
2022-08-03T05:20:11.409Z,101174.16
2022-08-03T05:22:59.296Z,101170.00
2022-08-03T05:25:50.115Z,101166.63
2022-08-03T05:28:37.524Z,101169.03
2022-08-03T05:31:24.544Z,101170.16
2022-08-03T05:34:11.523Z,101175.28
2022-08-03T05:36:58.535Z,101178.78
2022-08-03T05:39:45.530Z,101183.13
2022-08-03T05:42:32.552Z,101184.59
2022-08-03T05:45:19.960Z,101185.69
2022-08-03T05:48:06.946Z,101185.75
2022-08-03T05:50:53.977Z,101191.88
2022-08-03T05:53:42.358Z,101187.63
2022-08-03T05:56:29.394Z,101188.09
2022-08-03T05:59:36.962Z,101197.28
2022-08-03T06:02:23.373Z,101194.22
2022-08-03T06:05:10.907Z,101197.28
2022-08-03T06:07:57.857Z,101198.88
2022-08-03T06:10:44.922Z,101195.78
2022-08-03T06:13:32.398Z,101194.00
2022-08-03T06:16:19.359Z,101200.53
2022-08-03T06:19:06.434Z,101183.59
2022-08-03T06:21:53.530Z,101185.38
2022-08-03T06:24:41.647Z,101190.00
2022-08-03T06:27:40.362Z,101202.25
2022-08-03T06:30:27.395Z,101202.06
2022-08-03T06:33:14.446Z,101210.03
2022-08-03T06:36:01.469Z,101207.47
2022-08-03T06:38:48.622Z,101200.16
2022-08-03T06:41:38.060Z,101200.78
2022-08-03T06:44:31.657Z,101209.94
2022-08-03T06:47:18.691Z,101210.97
2022-08-03T06:50:16.245Z,101216.81
2022-08-03T06:53:05.804Z,101208.34
2022-08-03T06:55:55.093Z,101216.47
2022-08-03T06:58:42.810Z,101222.28
2022-08-03T07:01:29.956Z,101220.34
2022-08-03T07:04:17.250Z,101221.03
2022-08-03T07:07:04.683Z,101237.22
2022-08-03T07:09:56.433Z,101242.50
2022-08-03T07:12:52.698Z,101233.63
2022-08-03T07:15:55.684Z,101231.00
2022-08-03T07:18:43.321Z,101239.22
2022-08-03T07:21:30.596Z,101256.13
2022-08-03T07:24:17.838Z,101252.09
2022-08-03T07:27:05.232Z,101257.13
2022-08-03T07:29:52.793Z,101259.19
2022-08-03T07:32:50.195Z,101258.31
2022-08-03T07:35:38.047Z,101258.38
2022-08-03T07:38:25.577Z,101261.31
2022-08-03T07:41:12.989Z,101246.63
2022-08-03T07:44:00.056Z,101242.44
2022-08-03T07:46:48.575Z,101256.81
2022-08-03T07:49:40.110Z,101247.75
2022-08-03T07:52:45.878Z,101240.25
2022-08-03T07:55:33.047Z,101251.41
2022-08-03T07:58:23.975Z,101251.31
2022-08-03T08:01:11.635Z,101238.63
2022-08-03T08:04:02.240Z,101239.94
2022-08-03T08:06:49.301Z,101242.13
2022-08-03T08:09:36.591Z,101236.50
2022-08-03T08:12:23.582Z,101247.16
2022-08-03T08:15:10.738Z,101258.19
2022-08-03T08:17:59.843Z,101247.03
2022-08-03T08:20:46.989Z,101242.25
2022-08-03T08:23:41.999Z,101240.06
2022-08-03T08:26:30.525Z,101247.53
2022-08-03T08:29:18.581Z,101252.16
2022-08-03T08:32:07.445Z,101240.69
2022-08-03T08:34:54.609Z,101248.50
2022-08-03T08:37:41.742Z,101228.56
2022-08-03T08:40:29.505Z,101250.19
2022-08-03T08:43:16.822Z,101239.88
2022-08-03T08:46:05.998Z,101247.31
2022-08-03T08:48:54.514Z,101236.53
2022-08-03T08:51:59.252Z,101237.16
2022-08-03T08:54:48.155Z,101229.63
2022-08-03T08:57:43.520Z,101240.53
2022-08-03T09:00:31.359Z,101241.31
2022-08-03T09:03:22.371Z,101232.78
2022-08-03T09:06:17.064Z,101237.88
2022-08-03T09:09:06.080Z,101215.00
2022-08-03T09:12:01.279Z,101215.34
2022-08-03T09:15:20.515Z,101218.72
2022-08-03T09:18:09.585Z,101204.88
2022-08-03T09:21:31.344Z,101206.38
2022-08-03T09:24:40.659Z,101225.56
2022-08-03T09:27:28.854Z,101201.09
2022-08-03T09:30:33.073Z,101216.59
2022-08-03T09:33:22.139Z,101228.41
2022-08-03T09:36:09.162Z,101204.06
2022-08-03T09:39:13.018Z,101203.28
2022-08-03T09:42:08.835Z,101210.03
2022-08-03T09:44:55.836Z,101209.03
2022-08-03T09:47:45.022Z,101215.84
2022-08-03T09:50:57.031Z,101214.59
2022-08-03T09:53:59.341Z,101210.59
2022-08-03T09:56:47.602Z,101190.53
2022-08-03T09:59:35.164Z,101190.16
2022-08-03T10:02:26.712Z,101183.09
2022-08-03T10:05:19.415Z,101194.91
2022-08-03T10:08:15.554Z,101205.13
2022-08-03T10:11:02.777Z,101188.47
2022-08-03T10:13:49.932Z,101188.47
2022-08-03T10:16:38.762Z,101179.03
2022-08-03T10:19:25.838Z,101187.50
2022-08-03T10:22:32.534Z,101168.78
2022-08-03T10:25:19.602Z,101186.84
2022-08-03T10:28:08.738Z,101153.78
2022-08-03T10:30:56.780Z,101153.78
2022-08-03T10:33:51.060Z,101164.03
2022-08-03T10:36:41.645Z,101155.00
2022-08-03T10:39:31.875Z,101142.28
2022-08-03T10:42:26.409Z,101150.28
2022-08-03T10:45:20.992Z,101140.72
2022-08-03T10:48:09.852Z,101164.28
2022-08-03T10:50:57.789Z,101120.94
2022-08-03T10:53:54.639Z,101129.81
2022-08-03T10:57:14.144Z,101144.94
2022-08-03T11:00:05.610Z,101134.56
2022-08-03T11:03:11.253Z,101109.72
2022-08-03T11:06:20.098Z,101122.88
2022-08-03T11:09:10.147Z,101150.03
2022-08-03T11:12:01.461Z,101121.34
2022-08-03T11:14:49.584Z,101125.22
2022-08-03T11:17:55.663Z,101119.16
2022-08-03T11:20:54.320Z,101121.75
2022-08-03T11:24:04.285Z,101107.47
2022-08-03T11:27:21.237Z,101145.56
2022-08-03T11:30:18.590Z,101117.50
2022-08-03T11:33:05.597Z,101113.56
2022-08-03T11:36:02.641Z,101136.78
2022-08-03T11:39:22.362Z,101137.97
2022-08-03T11:42:24.721Z,101100.56
2022-08-03T11:45:12.748Z,101112.75
2022-08-03T11:48:13.914Z,101102.75
2022-08-03T11:51:05.396Z,101127.78
2022-08-03T11:54:00.851Z,101110.16
2022-08-03T11:56:50.202Z,101122.25
2022-08-03T11:59:38.797Z,101086.44
2022-08-03T12:02:26.062Z,101106.44
2022-08-03T12:05:13.224Z,101105.44
2022-08-03T12:08:03.617Z,101126.50
2022-08-03T12:10:55.715Z,101111.47
2022-08-03T12:14:33.106Z,101094.63
2022-08-03T12:16:54.220Z,101103.03
2022-08-03T12:19:44.422Z,101114.88
2022-08-03T12:22:33.413Z,101061.41
2022-08-03T12:25:39.288Z,101094.84
2022-08-03T12:28:36.026Z,101099.06
2022-08-03T12:31:25.897Z,101093.78
2022-08-03T12:34:13.849Z,101072.22
2022-08-03T12:37:22.156Z,101103.25
2022-08-03T12:40:15.145Z,101083.56
2022-08-03T12:43:12.647Z,101056.38
2022-08-03T12:46:13.855Z,101069.13
2022-08-03T12:49:15.710Z,101052.47
2022-08-03T12:52:07.453Z,101068.22
2022-08-03T12:55:02.023Z,101065.91
2022-08-03T12:57:56.382Z,101071.94
2022-08-03T13:00:58.594Z,101055.28
2022-08-03T13:07:04.616Z,101076.69
2022-08-03T13:09:57.645Z,101059.78
2022-08-03T13:12:50.671Z,101041.03
2022-08-03T13:15:48.018Z,101047.97
2022-08-03T13:18:35.296Z,101056.31
2022-08-03T13:21:25.155Z,101044.75
2022-08-03T13:24:25.434Z,101025.34
2022-08-03T13:28:01.092Z,101061.59
2022-08-03T13:30:30.183Z,101046.81
2022-08-03T13:33:18.319Z,101030.63
2022-08-03T13:39:09.270Z,101022.97
2022-08-03T13:42:02.632Z,101032.50
2022-08-03T13:44:49.879Z,101026.13
2022-08-03T13:47:38.316Z,101033.41
2022-08-03T13:50:26.352Z,101057.56
2022-08-03T13:53:13.426Z,101026.81
2022-08-03T13:56:01.499Z,101046.59
2022-08-03T13:58:48.744Z,101019.22
2022-08-03T14:01:53.980Z,101020.59
2022-08-03T14:04:42.597Z,101005.94
2022-08-03T14:07:29.550Z,101007.06
2022-08-03T14:10:17.730Z,100997.75
2022-08-03T14:13:05.762Z,100968.63
2022-08-03T14:15:57.928Z,100989.72
2022-08-03T14:18:46.336Z,101009.59
2022-08-03T14:21:36.603Z,100996.31
2022-08-03T14:24:23.883Z,101011.44
2022-08-03T14:27:10.895Z,100996.53
2022-08-03T14:30:00.118Z,100999.59
2022-08-03T14:32:47.275Z,101006.34
2022-08-03T14:35:35.292Z,100985.75
2022-08-03T14:38:22.707Z,100983.28
2022-08-03T14:41:12.216Z,100982.25
2022-08-03T14:44:09.679Z,100988.03
2022-08-03T14:46:56.632Z,100979.41
2022-08-03T14:50:38.677Z,100967.75
2022-08-03T14:52:50.957Z,100972.91
2022-08-03T14:55:38.822Z,100973.72
2022-08-03T14:58:37.566Z,100969.41
2022-08-03T15:02:06.364Z,100977.22
2022-08-03T15:04:49.645Z,100976.44
2022-08-03T15:07:36.631Z,100970.94
2022-08-03T15:10:27.092Z,100957.78
2022-08-03T15:13:27.866Z,100959.78
2022-08-03T15:16:14.909Z,100958.47
2022-08-03T15:19:01.960Z,100979.06
2022-08-03T15:21:52.063Z,100984.97
2022-08-03T15:24:39.277Z,100940.56
2022-08-03T15:27:26.298Z,100946.03
2022-08-03T15:30:13.486Z,100968.78
2022-08-03T15:33:00.485Z,100961.09
2022-08-03T15:35:47.910Z,100945.44
2022-08-03T15:38:35.005Z,100944.38
2022-08-03T15:41:21.998Z,100970.47
2022-08-03T15:44:09.497Z,100929.53
2022-08-03T15:46:56.542Z,100949.41
2022-08-03T15:49:43.533Z,100955.72
2022-08-03T15:52:30.508Z,100958.53
2022-08-03T15:55:21.865Z,100946.34
2022-08-03T15:59:10.240Z,100939.38
2022-08-03T16:01:19.630Z,100947.88
2022-08-03T16:04:07.083Z,100943.94
2022-08-03T16:06:54.181Z,100957.28
2022-08-03T16:09:44.060Z,100950.41
2022-08-03T16:12:31.406Z,100948.41
2022-08-03T16:15:20.019Z,100954.81
2022-08-03T16:18:07.731Z,100951.97
2022-08-03T16:20:54.746Z,100923.97
2022-08-03T16:23:43.139Z,100939.00
2022-08-03T16:26:34.918Z,100961.22
2022-08-03T16:29:23.585Z,100953.50
2022-08-03T16:32:11.446Z,100937.03
2022-08-03T16:34:58.664Z,100928.06
2022-08-03T16:37:46.124Z,100917.84
2022-08-03T16:40:43.704Z,100928.56
2022-08-03T16:43:31.014Z,100965.38
2022-08-03T16:46:18.077Z,100924.06
2022-08-03T16:49:05.091Z,100904.06
2022-08-03T16:51:52.281Z,100914.94
2022-08-03T16:54:41.270Z,100914.00
2022-08-03T16:57:56.461Z,100909.53
2022-08-03T17:00:41.806Z,100892.47
2022-08-03T17:03:42.429Z,100912.22
2022-08-03T17:06:45.195Z,100913.38
2022-08-03T17:09:38.166Z,100916.88
2022-08-03T17:12:27.084Z,100940.63
2022-08-03T17:15:14.491Z,100936.66
2022-08-03T17:18:07.972Z,100926.41
2022-08-03T17:20:57.905Z,100929.56
2022-08-03T17:23:53.633Z,100915.84
2022-08-03T17:26:46.024Z,100923.75
2022-08-03T17:29:45.237Z,100933.41
2022-08-03T17:32:34.688Z,100941.91
2022-08-03T17:35:22.439Z,100931.38
2022-08-03T17:38:15.006Z,100934.72
2022-08-03T17:41:10.662Z,100934.13
2022-08-03T17:44:15.331Z,100942.16
2022-08-03T17:47:06.621Z,100936.81
2022-08-03T17:49:54.846Z,100940.16
2022-08-03T17:52:48.242Z,100938.63
2022-08-03T17:55:56.043Z,100954.38
2022-08-03T17:59:14.954Z,100968.94
2022-08-03T18:02:40.448Z,100970.63
2022-08-03T18:06:11.943Z,100973.97
2022-08-03T18:08:50.536Z,100975.75
2022-08-03T18:11:44.627Z,100992.66
2022-08-03T18:18:02.261Z,100992.09
2022-08-03T18:20:49.964Z,100984.44
2022-08-03T18:23:39.121Z,100978.31
2022-08-03T18:26:26.358Z,100975.22
2022-08-03T18:29:14.126Z,100987.63
2022-08-03T18:32:03.777Z,100998.75
2022-08-03T18:34:53.522Z,100991.34
2022-08-03T18:37:51.910Z,100989.22
2022-08-03T18:40:51.860Z,100993.53
2022-08-03T18:43:46.357Z,100986.94
2022-08-03T18:46:50.550Z,100993.09
2022-08-03T18:49:40.619Z,100984.22
2022-08-03T18:52:58.718Z,100992.25
2022-08-03T18:56:01.939Z,100991.41
2022-08-03T18:59:04.342Z,100994.63
2022-08-03T19:02:00.683Z,100989.59
2022-08-03T19:04:50.141Z,100984.88
2022-08-03T19:07:38.827Z,100994.25
2022-08-03T19:10:32.110Z,101001.59
2022-08-03T19:13:30.817Z,101010.53
2022-08-03T19:16:38.812Z,101012.75
2022-08-03T19:19:27.926Z,101026.78
2022-08-03T19:22:33.397Z,101034.53
2022-08-03T19:25:34.906Z,101056.34
2022-08-03T19:28:29.629Z,101052.31
2022-08-03T19:31:17.322Z,101051.63
2022-08-03T19:34:08.204Z,101047.81
2022-08-03T19:36:58.557Z,101048.38
2022-08-03T19:39:45.767Z,101042.31
2022-08-03T19:42:46.574Z,101044.00
2022-08-03T19:46:05.028Z,101036.50
2022-08-03T19:48:55.682Z,101042.50
2022-08-03T19:52:02.215Z,101039.28
2022-08-03T19:54:53.658Z,101034.75
2022-08-03T19:57:45.717Z,101042.81
2022-08-03T20:00:37.089Z,101040.69
2022-08-03T20:03:42.814Z,101035.22
2022-08-03T20:06:31.507Z,101034.56
2022-08-03T20:09:20.635Z,101034.97
2022-08-03T20:12:09.353Z,101042.97
2022-08-03T20:14:59.599Z,101037.84
2022-08-03T20:17:56.267Z,101038.78
2022-08-03T20:20:48.691Z,101047.28
2022-08-03T20:23:38.914Z,101043.91
2022-08-03T20:30:06.511Z,101046.78
2022-08-03T20:32:54.827Z,101048.97
2022-08-03T20:35:45.847Z,101039.63
2022-08-03T20:38:43.669Z,101044.00
2022-08-03T20:41:35.614Z,101036.91
2022-08-03T20:44:25.733Z,101039.56
2022-08-03T20:47:15.059Z,101046.28
2022-08-03T20:50:11.450Z,101044.91
2022-08-03T20:52:59.339Z,101044.47
2022-08-03T20:56:02.123Z,101041.50
2022-08-03T20:58:50.988Z,101044.94
2022-08-03T21:01:38.125Z,101037.53
2022-08-03T21:04:25.074Z,101043.44
2022-08-03T21:07:18.404Z,101045.56
2022-08-03T21:10:13.195Z,101043.28
2022-08-03T21:13:04.191Z,101001.19
2022-08-03T21:13:13.253Z,101043.34
2022-08-03T21:13:23.590Z,101041.00
2022-08-03T21:16:14.947Z,101046.34
2022-08-03T21:19:03.929Z,101046.91
2022-08-03T21:21:53.387Z,101042.25
2022-08-03T21:24:44.950Z,101044.81
2022-08-03T21:27:32.771Z,101044.25
2022-08-03T21:30:22.174Z,101042.88
2022-08-03T21:33:09.349Z,101059.63
2022-08-03T21:36:01.175Z,101053.47
2022-08-03T21:38:57.049Z,101067.47
2022-08-03T21:41:44.600Z,101068.66
2022-08-03T21:44:31.608Z,101065.44
2022-08-03T21:47:21.413Z,101070.69
2022-08-03T21:50:11.836Z,101068.50
2022-08-03T21:52:59.479Z,101071.44
2022-08-03T21:56:08.511Z,101064.59
2022-08-03T21:58:56.915Z,101061.94
2022-08-03T22:01:48.931Z,101058.03
2022-08-03T22:04:39.121Z,101065.06
2022-08-03T22:07:40.765Z,101063.47
2022-08-03T22:10:28.907Z,101064.81
2022-08-03T22:13:23.327Z,101070.03
2022-08-03T22:16:25.441Z,101072.28
2022-08-03T22:19:12.497Z,101073.53
2022-08-03T22:22:00.459Z,101071.91
2022-08-03T22:24:48.881Z,101076.16
2022-08-03T22:27:40.513Z,101079.41
2022-08-03T22:30:27.580Z,101077.06
2022-08-03T22:33:15.901Z,101079.66
2022-08-03T22:36:05.213Z,101078.28
2022-08-03T22:38:53.190Z,101086.47
2022-08-03T22:41:40.402Z,101088.59
2022-08-03T22:44:29.751Z,101082.69
2022-08-03T22:47:22.755Z,101073.00
2022-08-03T22:50:31.794Z,101078.41
2022-08-03T22:53:21.922Z,101077.44
2022-08-03T22:56:09.165Z,101073.34
2022-08-03T22:58:56.115Z,101078.63
2022-08-03T23:01:44.174Z,101079.97
2022-08-03T23:04:33.997Z,101075.97
2022-08-03T23:07:30.355Z,101070.88
2022-08-03T23:10:18.227Z,101074.69
2022-08-03T23:13:06.824Z,101079.22
2022-08-03T23:15:59.064Z,101086.13
2022-08-03T23:18:48.992Z,101081.81
2022-08-03T23:22:00.658Z,101085.47
2022-08-03T23:24:45.146Z,101087.22
2022-08-03T23:27:33.228Z,101085.97
2022-08-03T23:30:20.242Z,101083.50
2022-08-03T23:33:18.857Z,101075.41
2022-08-03T23:36:28.725Z,101075.78
2022-08-03T23:39:16.631Z,101065.34
2022-08-03T23:42:04.385Z,101076.06
2022-08-03T23:44:55.184Z,101076.13
2022-08-03T23:47:46.491Z,101075.03
2022-08-03T23:50:44.810Z,101084.25
2022-08-03T23:53:41.255Z,101076.69
2022-08-03T23:56:41.311Z,101074.72
2022-08-03T23:59:51.558Z,101074.81
